sensor_id;sensor_type;location;lat;lon;timestamp;P1;durP1;ratioP1;P2;durP2;ratioP2
46607;SDS011;32330;51.936;7.184;2022-10-31T04:04:31;17.80;;;14.60;;
46607;SDS011;32330;51.936;7.184;2022-10-31T04:07:00;20.80;;;15.63;;
46607;SDS011;32330;51.936;7.184;2022-10-31T04:09:29;19.52;;;14.23;;
46607;SDS011;32330;51.936;7.184;2022-10-31T04:11:59;19.58;;;15.32;;
46607;SDS011;32330;51.936;7.184;2022-10-31T04:14:48;20.13;;;15.70;;
46607;SDS011;32330;51.936;7.184;2022-10-31T04:17:17;24.55;;;16.23;;
46607;SDS011;32330;51.936;7.184;2022-10-31T04:19:48;18.02;;;15.13;;
46607;SDS011;32330;51.936;7.184;2022-10-31T04:22:15;19.08;;;12.85;;
46607;SDS011;32330;51.936;7.184;2022-10-31T04:24:42;18.10;;;14.00;;
46607;SDS011;32330;51.936;7.184;2022-10-31T04:27:13;18.95;;;15.60;;
46607;SDS011;32330;51.936;7.184;2022-10-31T04:29:40;18.90;;;14.30;;
46607;SDS011;32330;51.936;7.184;2022-10-31T04:32:07;20.40;;;15.57;;
46607;SDS011;32330;51.936;7.184;2022-10-31T04:34:34;16.15;;;13.35;;
46607;SDS011;32330;51.936;7.184;2022-10-31T04:37:02;18.90;;;14.63;;
46607;SDS011;32330;51.936;7.184;2022-10-31T04:39:29;17.63;;;14.88;;
46607;SDS011;32330;51.936;7.184;2022-10-31T04:42:19;16.08;;;13.90;;
46607;SDS011;32330;51.936;7.184;2022-10-31T04:44:46;20.92;;;15.15;;
46607;SDS011;32330;51.936;7.184;2022-10-31T04:47:14;14.95;;;12.68;;
46607;SDS011;32330;51.936;7.184;2022-10-31T04:49:42;15.52;;;13.57;;
46607;SDS011;32330;51.936;7.184;2022-10-31T04:52:13;20.77;;;13.93;;
46607;SDS011;32330;51.936;7.184;2022-10-31T04:54:41;19.20;;;15.77;;
46607;SDS011;32330;51.936;7.184;2022-10-31T04:57:40;23.90;;;13.55;;
46607;SDS011;32330;51.936;7.184;2022-10-31T05:00:08;16.63;;;14.20;;
46607;SDS011;32330;51.936;7.184;2022-10-31T05:02:42;20.25;;;12.93;;
46607;SDS011;32330;51.936;7.184;2022-10-31T05:05:09;15.43;;;13.75;;
46607;SDS011;32330;51.936;7.184;2022-10-31T05:07:39;20.23;;;15.02;;
46607;SDS011;32330;51.936;7.184;2022-10-31T05:10:07;17.33;;;14.30;;
46607;SDS011;32330;51.936;7.184;2022-10-31T05:12:36;18.00;;;13.95;;
46607;SDS011;32330;51.936;7.184;2022-10-31T05:15:06;20.40;;;14.60;;
46607;SDS011;32330;51.936;7.184;2022-10-31T05:18:05;17.88;;;15.00;;
46607;SDS011;32330;51.936;7.184;2022-10-31T05:21:11;16.85;;;13.27;;
46607;SDS011;32330;51.936;7.184;2022-10-31T05:23:45;17.35;;;13.73;;
46607;SDS011;32330;51.936;7.184;2022-10-31T05:26:13;20.67;;;13.82;;
46607;SDS011;32330;51.936;7.184;2022-10-31T05:28:40;23.63;;;14.15;;
46607;SDS011;32330;51.936;7.184;2022-10-31T05:31:07;20.05;;;14.18;;
46607;SDS011;32330;51.936;7.184;2022-10-31T05:33:34;16.48;;;13.68;;
46607;SDS011;32330;51.936;7.184;2022-10-31T05:36:39;17.48;;;13.52;;
46607;SDS011;32330;51.936;7.184;2022-10-31T05:39:25;18.85;;;13.18;;
46607;SDS011;32330;51.936;7.184;2022-10-31T05:44:25;12.75;;;11.40;;
46607;SDS011;32330;51.936;7.184;2022-10-31T05:47:08;19.38;;;13.20;;
46607;SDS011;32330;51.936;7.184;2022-10-31T05:50:11;18.27;;;12.90;;
46607;SDS011;32330;51.936;7.184;2022-10-31T05:52:40;20.77;;;13.23;;
46607;SDS011;32330;51.936;7.184;2022-10-31T05:55:21;17.67;;;13.60;;
46607;SDS011;32330;51.936;7.184;2022-10-31T05:58:21;16.60;;;12.93;;
46607;SDS011;32330;51.936;7.184;2022-10-31T06:01:01;21.63;;;13.83;;
46607;SDS011;32330;51.936;7.184;2022-10-31T06:03:29;16.27;;;14.43;;
46607;SDS011;32330;51.936;7.184;2022-10-31T06:05:56;16.67;;;13.20;;
46607;SDS011;32330;51.936;7.184;2022-10-31T06:08:28;19.92;;;14.63;;
46607;SDS011;32330;51.936;7.184;2022-10-31T06:11:00;21.65;;;14.82;;
46607;SDS011;32330;51.936;7.184;2022-10-31T06:13:46;18.48;;;14.60;;
46607;SDS011;32330;51.936;7.184;2022-10-31T06:16:19;17.45;;;14.05;;
46607;SDS011;32330;51.936;7.184;2022-10-31T06:18:46;18.88;;;13.90;;
46607;SDS011;32330;51.936;7.184;2022-10-31T06:21:14;18.08;;;13.82;;
46607;SDS011;32330;51.936;7.184;2022-10-31T06:23:41;19.70;;;14.18;;
46607;SDS011;32330;51.936;7.184;2022-10-31T06:26:35;19.50;;;13.70;;
46607;SDS011;32330;51.936;7.184;2022-10-31T06:29:02;21.30;;;13.00;;
46607;SDS011;32330;51.936;7.184;2022-10-31T06:31:54;17.90;;;13.77;;
46607;SDS011;32330;51.936;7.184;2022-10-31T06:34:21;24.17;;;14.93;;
46607;SDS011;32330;51.936;7.184;2022-10-31T06:36:48;20.02;;;14.88;;
46607;SDS011;32330;51.936;7.184;2022-10-31T06:39:19;21.60;;;15.18;;
46607;SDS011;32330;51.936;7.184;2022-10-31T06:41:48;16.70;;;14.75;;
46607;SDS011;32330;51.936;7.184;2022-10-31T06:44:18;18.63;;;13.68;;
46607;SDS011;32330;51.936;7.184;2022-10-31T06:46:54;18.25;;;13.82;;
46607;SDS011;32330;51.936;7.184;2022-10-31T06:49:37;22.17;;;14.05;;
46607;SDS011;32330;51.936;7.184;2022-10-31T06:52:10;20.58;;;15.50;;
46607;SDS011;32330;51.936;7.184;2022-10-31T06:54:36;22.27;;;15.55;;
46607;SDS011;32330;51.936;7.184;2022-10-31T06:57:05;22.58;;;15.75;;
46607;SDS011;32330;51.936;7.184;2022-10-31T06:59:32;19.08;;;15.55;;
46607;SDS011;32330;51.936;7.184;2022-10-31T07:02:16;20.08;;;14.07;;
46607;SDS011;32330;51.936;7.184;2022-10-31T07:04:43;18.10;;;14.75;;
46607;SDS011;32330;51.936;7.184;2022-10-31T07:07:14;25.73;;;15.75;;
46607;SDS011;32330;51.936;7.184;2022-10-31T07:09:41;19.42;;;14.18;;
46607;SDS011;32330;51.936;7.184;2022-10-31T07:12:11;20.20;;;14.90;;
46607;SDS011;32330;51.936;7.184;2022-10-31T07:14:45;23.67;;;16.98;;
46607;SDS011;32330;51.936;7.184;2022-10-31T07:17:12;22.60;;;16.23;;
46607;SDS011;32330;51.936;7.184;2022-10-31T07:19:42;24.60;;;16.42;;
46607;SDS011;32330;51.936;7.184;2022-10-31T07:22:11;19.25;;;15.63;;
46607;SDS011;32330;51.936;7.184;2022-10-31T07:24:42;24.95;;;18.52;;
46607;SDS011;32330;51.936;7.184;2022-10-31T07:27:29;26.33;;;18.58;;
46607;SDS011;32330;51.936;7.184;2022-10-31T07:30:02;23.25;;;16.60;;
46607;SDS011;32330;51.936;7.184;2022-10-31T07:32:37;27.80;;;18.85;;
46607;SDS011;32330;51.936;7.184;2022-10-31T07:35:04;27.38;;;20.85;;
46607;SDS011;32330;51.936;7.184;2022-10-31T07:37:41;27.08;;;20.77;;
46607;SDS011;32330;51.936;7.184;2022-10-31T07:40:09;23.05;;;18.42;;
46607;SDS011;32330;51.936;7.184;2022-10-31T07:42:39;28.00;;;18.45;;
46607;SDS011;32330;51.936;7.184;2022-10-31T07:45:26;24.67;;;18.80;;
46607;SDS011;32330;51.936;7.184;2022-10-31T07:48:12;26.48;;;18.38;;
46607;SDS011;32330;51.936;7.184;2022-10-31T07:51:02;28.63;;;19.60;;
46607;SDS011;32330;51.936;7.184;2022-10-31T07:53:47;31.13;;;20.33;;
46607;SDS011;32330;51.936;7.184;2022-10-31T07:56:23;26.85;;;20.17;;
46607;SDS011;32330;51.936;7.184;2022-10-31T07:58:52;22.90;;;16.95;;
46607;SDS011;32330;51.936;7.184;2022-10-31T08:01:19;25.50;;;16.98;;
46607;SDS011;32330;51.936;7.184;2022-10-31T08:04:01;32.25;;;20.35;;
46607;SDS011;32330;51.936;7.184;2022-10-31T08:06:46;25.17;;;19.38;;
46607;SDS011;32330;51.936;7.184;2022-10-31T08:09:26;29.50;;;20.10;;
46607;SDS011;32330;51.936;7.184;2022-10-31T08:11:55;24.70;;;17.77;;
46607;SDS011;32330;51.936;7.184;2022-10-31T08:14:23;26.00;;;19.90;;
46607;SDS011;32330;51.936;7.184;2022-10-31T08:16:52;26.85;;;19.25;;
46607;SDS011;32330;51.936;7.184;2022-10-31T08:19:19;32.58;;;21.95;;
46607;SDS011;32330;51.936;7.184;2022-10-31T08:21:46;21.52;;;16.70;;
46607;SDS011;32330;51.936;7.184;2022-10-31T08:24:16;25.05;;;19.50;;
46607;SDS011;32330;51.936;7.184;2022-10-31T08:26:43;26.65;;;19.13;;
46607;SDS011;32330;51.936;7.184;2022-10-31T08:29:11;23.40;;;18.00;;
46607;SDS011;32330;51.936;7.184;2022-10-31T08:31:41;24.98;;;19.75;;
46607;SDS011;32330;51.936;7.184;2022-10-31T08:34:27;22.92;;;16.10;;
46607;SDS011;32330;51.936;7.184;2022-10-31T08:37:29;18.40;;;15.80;;
46607;SDS011;32330;51.936;7.184;2022-10-31T08:39:56;21.60;;;17.63;;
46607;SDS011;32330;51.936;7.184;2022-10-31T08:42:23;24.63;;;16.95;;
46607;SDS011;32330;51.936;7.184;2022-10-31T08:44:50;23.35;;;16.05;;
46607;SDS011;32330;51.936;7.184;2022-10-31T08:47:21;19.77;;;14.95;;
46607;SDS011;32330;51.936;7.184;2022-10-31T08:49:48;18.20;;;14.25;;
46607;SDS011;32330;51.936;7.184;2022-10-31T08:52:15;15.43;;;13.00;;
46607;SDS011;32330;51.936;7.184;2022-10-31T08:54:45;17.05;;;12.68;;
46607;SDS011;32330;51.936;7.184;2022-10-31T08:57:31;13.95;;;10.15;;
46607;SDS011;32330;51.936;7.184;2022-10-31T08:59:58;13.43;;;11.15;;
46607;SDS011;32330;51.936;7.184;2022-10-31T09:02:45;12.63;;;9.55;;
46607;SDS011;32330;51.936;7.184;2022-10-31T09:05:13;9.27;;;7.78;;
46607;SDS011;32330;51.936;7.184;2022-10-31T09:07:40;10.77;;;6.75;;
46607;SDS011;32330;51.936;7.184;2022-10-31T09:10:07;9.95;;;5.88;;
46607;SDS011;32330;51.936;7.184;2022-10-31T09:12:36;8.73;;;5.60;;
46607;SDS011;32330;51.936;7.184;2022-10-31T09:15:27;5.47;;;4.18;;
46607;SDS011;32330;51.936;7.184;2022-10-31T09:18:08;5.32;;;3.88;;
46607;SDS011;32330;51.936;7.184;2022-10-31T09:20:54;9.02;;;5.10;;
46607;SDS011;32330;51.936;7.184;2022-10-31T09:23:23;6.90;;;5.30;;
46607;SDS011;32330;51.936;7.184;2022-10-31T09:25:51;7.20;;;5.45;;
46607;SDS011;32330;51.936;7.184;2022-10-31T09:28:32;6.82;;;5.85;;
46607;SDS011;32330;51.936;7.184;2022-10-31T09:31:05;8.68;;;5.88;;
46607;SDS011;32330;51.936;7.184;2022-10-31T09:33:51;10.25;;;7.65;;
46607;SDS011;32330;51.936;7.184;2022-10-31T09:36:48;8.70;;;7.20;;
46607;SDS011;32330;51.936;7.184;2022-10-31T09:39:19;13.88;;;8.55;;
46607;SDS011;32330;51.936;7.184;2022-10-31T09:41:58;14.45;;;9.93;;
46607;SDS011;32330;51.936;7.184;2022-10-31T09:44:36;15.05;;;12.85;;
46607;SDS011;32330;51.936;7.184;2022-10-31T09:47:24;16.35;;;11.50;;
46607;SDS011;32330;51.936;7.184;2022-10-31T09:50:20;19.10;;;12.00;;
46607;SDS011;32330;51.936;7.184;2022-10-31T09:52:53;16.33;;;12.48;;
46607;SDS011;32330;51.936;7.184;2022-10-31T09:55:27;16.50;;;12.73;;
46607;SDS011;32330;51.936;7.184;2022-10-31T09:58:01;21.90;;;14.65;;
46607;SDS011;32330;51.936;7.184;2022-10-31T10:00:29;20.77;;;15.57;;
46607;SDS011;32330;51.936;7.184;2022-10-31T10:02:59;17.00;;;14.30;;
46607;SDS011;32330;51.936;7.184;2022-10-31T10:05:34;21.55;;;15.52;;
46607;SDS011;32330;51.936;7.184;2022-10-31T10:08:14;21.33;;;16.92;;
46607;SDS011;32330;51.936;7.184;2022-10-31T10:11:02;23.02;;;17.17;;
46607;SDS011;32330;51.936;7.184;2022-10-31T10:14:02;20.58;;;16.90;;
46607;SDS011;32330;51.936;7.184;2022-10-31T10:16:44;23.52;;;18.70;;
46607;SDS011;32330;51.936;7.184;2022-10-31T10:19:25;29.85;;;19.30;;
46607;SDS011;32330;51.936;7.184;2022-10-31T10:22:04;26.40;;;20.10;;
46607;SDS011;32330;51.936;7.184;2022-10-31T10:24:43;26.38;;;19.00;;
46607;SDS011;32330;51.936;7.184;2022-10-31T10:27:22;28.90;;;19.75;;
46607;SDS011;32330;51.936;7.184;2022-10-31T10:29:58;31.83;;;20.02;;
46607;SDS011;32330;51.936;7.184;2022-10-31T10:32:30;26.40;;;19.63;;
46607;SDS011;32330;51.936;7.184;2022-10-31T10:35:09;27.30;;;19.25;;
46607;SDS011;32330;51.936;7.184;2022-10-31T10:37:45;28.55;;;19.95;;
46607;SDS011;32330;51.936;7.184;2022-10-31T10:40:16;25.42;;;19.17;;
46607;SDS011;32330;51.936;7.184;2022-10-31T10:42:50;19.80;;;16.85;;
46607;SDS011;32330;51.936;7.184;2022-10-31T10:45:41;21.38;;;16.27;;
46607;SDS011;32330;51.936;7.184;2022-10-31T10:48:39;20.50;;;15.05;;
46607;SDS011;32330;51.936;7.184;2022-10-31T10:51:19;24.67;;;17.77;;
46607;SDS011;32330;51.936;7.184;2022-10-31T10:53:53;19.95;;;16.85;;
46607;SDS011;32330;51.936;7.184;2022-10-31T10:56:32;25.37;;;18.20;;
46607;SDS011;32330;51.936;7.184;2022-10-31T10:59:11;21.95;;;17.73;;
46607;SDS011;32330;51.936;7.184;2022-10-31T11:01:41;24.45;;;18.30;;
46607;SDS011;32330;51.936;7.184;2022-10-31T11:04:17;27.45;;;19.75;;
46607;SDS011;32330;51.936;7.184;2022-10-31T11:07:02;24.70;;;19.60;;
46607;SDS011;32330;51.936;7.184;2022-10-31T11:09:31;24.45;;;19.13;;
46607;SDS011;32330;51.936;7.184;2022-10-31T11:11:58;28.20;;;19.67;;
46607;SDS011;32330;51.936;7.184;2022-10-31T11:14:31;28.92;;;20.35;;
46607;SDS011;32330;51.936;7.184;2022-10-31T11:17:07;25.48;;;18.92;;
46607;SDS011;32330;51.936;7.184;2022-10-31T11:23:49;22.60;;;18.92;;
46607;SDS011;32330;51.936;7.184;2022-10-31T11:26:19;24.73;;;19.42;;
46607;SDS011;32330;51.936;7.184;2022-10-31T11:32:17;26.13;;;17.23;;
46607;SDS011;32330;51.936;7.184;2022-10-31T11:34:48;23.73;;;17.98;;
46607;SDS011;32330;51.936;7.184;2022-10-31T11:37:20;29.02;;;20.05;;
46607;SDS011;32330;51.936;7.184;2022-10-31T11:49:37;26.33;;;20.75;;
46607;SDS011;32330;51.936;7.184;2022-10-31T11:52:06;31.70;;;22.02;;
46607;SDS011;32330;51.936;7.184;2022-10-31T11:58:29;29.02;;;20.55;;
46607;SDS011;32330;51.936;7.184;2022-10-31T12:00:56;29.63;;;21.80;;
46607;SDS011;32330;51.936;7.184;2022-10-31T12:03:27;35.08;;;21.20;;
46607;SDS011;32330;51.936;7.184;2022-10-31T12:06:06;31.10;;;22.20;;
46607;SDS011;32330;51.936;7.184;2022-10-31T12:08:37;29.50;;;22.25;;
46607;SDS011;32330;51.936;7.184;2022-10-31T12:11:10;30.70;;;21.92;;
46607;SDS011;32330;51.936;7.184;2022-10-31T12:13:46;32.90;;;22.30;;
46607;SDS011;32330;51.936;7.184;2022-10-31T12:16:24;29.10;;;21.10;;
46607;SDS011;32330;51.936;7.184;2022-10-31T12:18:56;30.25;;;21.00;;
46607;SDS011;32330;51.936;7.184;2022-10-31T12:21:31;27.88;;;21.95;;
46607;SDS011;32330;51.936;7.184;2022-10-31T12:24:09;27.80;;;21.67;;
46607;SDS011;32330;51.936;7.184;2022-10-31T12:26:46;27.88;;;21.88;;
46607;SDS011;32330;51.936;7.184;2022-10-31T12:29:27;27.60;;;21.10;;
46607;SDS011;32330;51.936;7.184;2022-10-31T12:32:05;27.70;;;21.45;;
46607;SDS011;32330;51.936;7.184;2022-10-31T12:34:57;31.13;;;21.35;;
46607;SDS011;32330;51.936;7.184;2022-10-31T12:37:39;26.30;;;20.55;;
46607;SDS011;32330;51.936;7.184;2022-10-31T12:43:35;30.40;;;22.27;;
46607;SDS011;32330;51.936;7.184;2022-10-31T12:46:10;31.00;;;22.30;;
46607;SDS011;32330;51.936;7.184;2022-10-31T12:48:49;28.77;;;21.15;;
46607;SDS011;32330;51.936;7.184;2022-10-31T12:51:45;26.75;;;22.52;;
46607;SDS011;32330;51.936;7.184;2022-10-31T12:54:26;27.83;;;21.90;;
46607;SDS011;32330;51.936;7.184;2022-10-31T12:57:03;29.13;;;21.63;;
46607;SDS011;32330;51.936;7.184;2022-10-31T12:59:40;29.80;;;20.85;;
46607;SDS011;32330;51.936;7.184;2022-10-31T13:02:12;29.47;;;21.07;;
46607;SDS011;32330;51.936;7.184;2022-10-31T13:04:45;28.27;;;21.67;;
46607;SDS011;32330;51.936;7.184;2022-10-31T13:07:15;27.23;;;21.20;;
46607;SDS011;32330;51.936;7.184;2022-10-31T13:09:50;26.02;;;21.00;;
46607;SDS011;32330;51.936;7.184;2022-10-31T13:12:22;28.20;;;22.55;;
46607;SDS011;32330;51.936;7.184;2022-10-31T13:14:51;27.60;;;22.25;;
46607;SDS011;32330;51.936;7.184;2022-10-31T13:17:26;27.80;;;22.38;;
46607;SDS011;32330;51.936;7.184;2022-10-31T13:19:59;26.92;;;20.73;;
46607;SDS011;32330;51.936;7.184;2022-10-31T13:22:39;27.08;;;21.40;;
46607;SDS011;32330;51.936;7.184;2022-10-31T13:25:13;30.88;;;21.67;;
46607;SDS011;32330;51.936;7.184;2022-10-31T13:27:45;31.17;;;21.55;;
46607;SDS011;32330;51.936;7.184;2022-10-31T13:30:16;29.80;;;21.85;;
46607;SDS011;32330;51.936;7.184;2022-10-31T13:32:46;26.92;;;20.77;;
46607;SDS011;32330;51.936;7.184;2022-10-31T13:35:18;31.67;;;22.17;;
46607;SDS011;32330;51.936;7.184;2022-10-31T13:37:50;29.27;;;21.08;;
46607;SDS011;32330;51.936;7.184;2022-10-31T13:40:32;29.60;;;21.85;;
46607;SDS011;32330;51.936;7.184;2022-10-31T13:43:05;25.67;;;21.63;;
46607;SDS011;32330;51.936;7.184;2022-10-31T13:45:47;27.48;;;22.25;;
46607;SDS011;32330;51.936;7.184;2022-10-31T13:48:20;28.88;;;22.05;;
46607;SDS011;32330;51.936;7.184;2022-10-31T13:59:00;29.65;;;22.52;;
46607;SDS011;32330;51.936;7.184;2022-10-31T14:01:31;32.58;;;21.00;;
46607;SDS011;32330;51.936;7.184;2022-10-31T14:04:00;27.15;;;19.45;;
46607;SDS011;32330;51.936;7.184;2022-10-31T14:06:37;28.23;;;20.50;;
46607;SDS011;32330;51.936;7.184;2022-10-31T14:09:16;31.45;;;21.15;;
46607;SDS011;32330;51.936;7.184;2022-10-31T14:11:55;29.38;;;20.63;;
46607;SDS011;32330;51.936;7.184;2022-10-31T14:14:28;26.58;;;19.23;;
46607;SDS011;32330;51.936;7.184;2022-10-31T14:16:59;25.85;;;19.75;;
46607;SDS011;32330;51.936;7.184;2022-10-31T14:19:27;27.05;;;19.05;;
46607;SDS011;32330;51.936;7.184;2022-10-31T14:21:54;26.27;;;19.60;;
46607;SDS011;32330;51.936;7.184;2022-10-31T14:24:32;24.67;;;19.60;;
46607;SDS011;32330;51.936;7.184;2022-10-31T14:27:02;27.67;;;19.27;;
46607;SDS011;32330;51.936;7.184;2022-10-31T14:29:51;31.77;;;21.02;;
46607;SDS011;32330;51.936;7.184;2022-10-31T14:32:20;23.55;;;18.30;;
46607;SDS011;32330;51.936;7.184;2022-10-31T14:34:53;31.27;;;20.08;;
46607;SDS011;32330;51.936;7.184;2022-10-31T14:40:18;27.50;;;18.58;;
46607;SDS011;32330;51.936;7.184;2022-10-31T14:43:02;28.35;;;18.42;;
46607;SDS011;32330;51.936;7.184;2022-10-31T14:45:46;33.67;;;18.92;;
46607;SDS011;32330;51.936;7.184;2022-10-31T14:48:24;27.00;;;18.48;;
46607;SDS011;32330;51.936;7.184;2022-10-31T14:51:10;32.72;;;18.90;;
46607;SDS011;32330;51.936;7.184;2022-10-31T14:53:43;30.63;;;18.73;;
46607;SDS011;32330;51.936;7.184;2022-10-31T14:56:14;29.85;;;19.08;;
46607;SDS011;32330;51.936;7.184;2022-10-31T14:58:46;27.42;;;19.13;;
46607;SDS011;32330;51.936;7.184;2022-10-31T15:01:23;31.60;;;19.48;;
46607;SDS011;32330;51.936;7.184;2022-10-31T15:03:51;27.77;;;20.55;;
46607;SDS011;32330;51.936;7.184;2022-10-31T15:06:20;30.63;;;20.52;;
46607;SDS011;32330;51.936;7.184;2022-10-31T15:08:49;31.42;;;19.02;;
46607;SDS011;32330;51.936;7.184;2022-10-31T15:11:18;27.67;;;19.50;;
46607;SDS011;32330;51.936;7.184;2022-10-31T15:13:47;28.83;;;21.40;;
46607;SDS011;32330;51.936;7.184;2022-10-31T15:16:15;31.98;;;20.83;;
46607;SDS011;32330;51.936;7.184;2022-10-31T15:18:48;30.73;;;20.95;;
46607;SDS011;32330;51.936;7.184;2022-10-31T15:21:18;33.97;;;22.92;;
46607;SDS011;32330;51.936;7.184;2022-10-31T15:23:47;29.58;;;20.80;;
46607;SDS011;32330;51.936;7.184;2022-10-31T15:26:17;31.92;;;21.95;;
46607;SDS011;32330;51.936;7.184;2022-10-31T15:28:46;32.47;;;23.77;;
46607;SDS011;32330;51.936;7.184;2022-10-31T15:31:24;30.17;;;22.05;;
46607;SDS011;32330;51.936;7.184;2022-10-31T15:33:52;36.85;;;24.38;;
46607;SDS011;32330;51.936;7.184;2022-10-31T15:36:23;37.10;;;24.60;;
46607;SDS011;32330;51.936;7.184;2022-10-31T15:38:51;37.17;;;24.13;;
46607;SDS011;32330;51.936;7.184;2022-10-31T15:41:24;36.22;;;23.85;;
46607;SDS011;32330;51.936;7.184;2022-10-31T15:43:56;36.78;;;24.60;;
46607;SDS011;32330;51.936;7.184;2022-10-31T15:46:28;39.55;;;26.08;;
46607;SDS011;32330;51.936;7.184;2022-10-31T15:48:57;36.20;;;27.25;;
46607;SDS011;32330;51.936;7.184;2022-10-31T15:51:25;38.40;;;27.95;;
46607;SDS011;32330;51.936;7.184;2022-10-31T15:53:53;38.03;;;25.77;;
46607;SDS011;32330;51.936;7.184;2022-10-31T15:56:23;40.20;;;28.00;;
46607;SDS011;32330;51.936;7.184;2022-10-31T15:58:52;40.78;;;27.10;;
46607;SDS011;32330;51.936;7.184;2022-10-31T16:01:22;43.58;;;30.25;;
46607;SDS011;32330;51.936;7.184;2022-10-31T16:04:02;46.08;;;28.83;;
46607;SDS011;32330;51.936;7.184;2022-10-31T16:06:32;51.90;;;34.15;;
46607;SDS011;32330;51.936;7.184;2022-10-31T16:09:00;45.75;;;30.65;;
46607;SDS011;32330;51.936;7.184;2022-10-31T16:11:31;39.65;;;27.67;;
46607;SDS011;32330;51.936;7.184;2022-10-31T16:14:02;35.58;;;26.70;;
46607;SDS011;32330;51.936;7.184;2022-10-31T16:16:33;44.53;;;33.08;;
46607;SDS011;32330;51.936;7.184;2022-10-31T16:19:12;36.70;;;27.33;;
46607;SDS011;32330;51.936;7.184;2022-10-31T16:21:44;41.50;;;29.30;;
46607;SDS011;32330;51.936;7.184;2022-10-31T16:24:14;55.83;;;36.75;;
46607;SDS011;32330;51.936;7.184;2022-10-31T16:26:47;51.10;;;37.42;;
46607;SDS011;32330;51.936;7.184;2022-10-31T16:29:23;44.25;;;32.08;;
46607;SDS011;32330;51.936;7.184;2022-10-31T16:31:52;46.90;;;33.83;;
46607;SDS011;32330;51.936;7.184;2022-10-31T16:34:21;46.70;;;33.78;;
46607;SDS011;32330;51.936;7.184;2022-10-31T16:36:49;44.22;;;33.75;;
46607;SDS011;32330;51.936;7.184;2022-10-31T16:39:16;48.78;;;33.58;;
46607;SDS011;32330;51.936;7.184;2022-10-31T16:41:44;49.20;;;34.92;;
46607;SDS011;32330;51.936;7.184;2022-10-31T16:44:15;43.15;;;31.17;;
46607;SDS011;32330;51.936;7.184;2022-10-31T16:46:44;44.60;;;34.53;;
46607;SDS011;32330;51.936;7.184;2022-10-31T16:49:12;45.63;;;33.60;;
46607;SDS011;32330;51.936;7.184;2022-10-31T16:51:42;40.05;;;30.65;;
46607;SDS011;32330;51.936;7.184;2022-10-31T16:54:09;43.45;;;31.90;;
46607;SDS011;32330;51.936;7.184;2022-10-31T16:56:36;44.42;;;35.00;;
46607;SDS011;32330;51.936;7.184;2022-10-31T16:59:06;50.38;;;34.97;;
46607;SDS011;32330;51.936;7.184;2022-10-31T17:01:38;43.70;;;33.05;;
